sensor_id;sensor_type;location;lat;lon;timestamp;pressure;altitude;pressure_sealevel;temperature;humidity
6128;BME280;7073;42.672;23.256;2023-03-14T00:01:58;94584.63;;;3.24;72.87
6128;BME280;7073;42.672;23.256;2023-03-14T00:04:25;94574.50;;;3.06;72.93
6128;BME280;7073;42.672;23.256;2023-03-14T00:06:52;94583.66;;;3.08;73.84
6128;BME280;7073;42.672;23.256;2023-03-14T00:09:18;94562.34;;;2.92;73.38
6128;BME280;7073;42.672;23.256;2023-03-14T00:11:46;94579.66;;;2.98;73.92
6128;BME280;7073;42.672;23.256;2023-03-14T00:14:14;94563.50;;;2.57;74.75
6128;BME280;7073;42.672;23.256;2023-03-14T00:20:02;94571.03;;;2.42;76.75
6128;BME280;7073;42.672;23.256;2023-03-14T00:22:33;94552.72;;;2.54;77.42
6128;BME280;7073;42.672;23.256;2023-03-14T00:25:00;94552.41;;;2.57;76.48
6128;BME280;7073;42.672;23.256;2023-03-14T00:27:27;94547.56;;;2.62;76.83
6128;BME280;7073;42.672;23.256;2023-03-14T00:29:55;94543.25;;;2.54;76.97
6128;BME280;7073;42.672;23.256;2023-03-14T00:36:07;94532.00;;;2.39;79.33
6128;BME280;7073;42.672;23.256;2023-03-14T00:38:35;94537.78;;;2.65;78.48
6128;BME280;7073;42.672;23.256;2023-03-14T00:41:03;94534.72;;;2.54;78.32
6128;BME280;7073;42.672;23.256;2023-03-14T00:43:56;94534.25;;;2.26;79.47
6128;BME280;7073;42.672;23.256;2023-03-14T00:46:25;94531.84;;;2.32;79.80
6128;BME280;7073;42.672;23.256;2023-03-14T00:48:51;94529.44;;;2.39;78.92
6128;BME280;7073;42.672;23.256;2023-03-14T00:51:18;94525.56;;;2.35;80.29
6128;BME280;7073;42.672;23.256;2023-03-14T01:01:47;94520.09;;;2.14;78.19
6128;BME280;7073;42.672;23.256;2023-03-14T01:04:14;94476.75;;;1.78;80.18
6128;BME280;7073;42.672;23.256;2023-03-14T01:06:43;94479.66;;;2.16;79.58
6128;BME280;7073;42.672;23.256;2023-03-14T01:09:13;94436.44;;;2.03;77.52
6128;BME280;7073;42.672;23.256;2023-03-14T01:12:02;94497.59;;;2.48;76.12
6128;BME280;7073;42.672;23.256;2023-03-14T01:14:37;94464.50;;;2.45;75.94
6128;BME280;7073;42.672;23.256;2023-03-14T01:17:30;94487.31;;;2.64;75.69
6128;BME280;7073;42.672;23.256;2023-03-14T01:19:57;94511.56;;;2.70;74.56
6128;BME280;7073;42.672;23.256;2023-03-14T01:22:24;94494.28;;;2.15;76.63
6128;BME280;7073;42.672;23.256;2023-03-14T01:24:51;94497.66;;;2.16;77.31
6128;BME280;7073;42.672;23.256;2023-03-14T01:27:23;94498.91;;;2.36;77.15
6128;BME280;7073;42.672;23.256;2023-03-14T01:29:53;94496.31;;;2.60;75.31
6128;BME280;7073;42.672;23.256;2023-03-14T01:32:20;94485.06;;;2.53;74.53
6128;BME280;7073;42.672;23.256;2023-03-14T01:34:48;94488.28;;;2.63;74.47
6128;BME280;7073;42.672;23.256;2023-03-14T01:37:15;94491.66;;;2.56;74.06
6128;BME280;7073;42.672;23.256;2023-03-14T01:39:42;94478.66;;;2.57;73.60
6128;BME280;7073;42.672;23.256;2023-03-14T01:42:09;94487.00;;;2.59;73.97
6128;BME280;7073;42.672;23.256;2023-03-14T01:44:50;94484.91;;;2.63;73.86
6128;BME280;7073;42.672;23.256;2023-03-14T01:47:18;94488.28;;;2.71;73.53
6128;BME280;7073;42.672;23.256;2023-03-14T01:49:56;94488.56;;;2.84;73.40
6128;BME280;7073;42.672;23.256;2023-03-14T01:58:54;94480.59;;;1.99;78.06
6128;BME280;7073;42.672;23.256;2023-03-14T02:01:24;94477.72;;;2.34;76.32
6128;BME280;7073;42.672;23.256;2023-03-14T02:03:55;94482.47;;;2.69;76.04
6128;BME280;7073;42.672;23.256;2023-03-14T02:06:26;94471.22;;;2.70;74.84
6128;BME280;7073;42.672;23.256;2023-03-14T02:08:55;94474.69;;;2.93;74.12
6128;BME280;7073;42.672;23.256;2023-03-14T02:11:22;94466.94;;;2.38;75.99
6128;BME280;7073;42.672;23.256;2023-03-14T02:13:53;94465.34;;;2.37;76.56
6128;BME280;7073;42.672;23.256;2023-03-14T02:16:47;94466.47;;;2.35;76.34
6128;BME280;7073;42.672;23.256;2023-03-14T02:19:18;94452.03;;;2.10;78.05
6128;BME280;7073;42.672;23.256;2023-03-14T02:21:54;94457.00;;;2.27;78.07
6128;BME280;7073;42.672;23.256;2023-03-14T02:24:27;94466.47;;;2.27;77.82
6128;BME280;7073;42.672;23.256;2023-03-14T02:27:12;94448.03;;;2.07;78.31
6128;BME280;7073;42.672;23.256;2023-03-14T02:29:45;94462.63;;;2.07;77.98
6128;BME280;7073;42.672;23.256;2023-03-14T02:32:16;94466.00;;;1.91;78.82
6128;BME280;7073;42.672;23.256;2023-03-14T02:34:45;94474.81;;;1.72;79.59
6128;BME280;7073;42.672;23.256;2023-03-14T02:37:14;94474.00;;;1.72;79.15
6128;BME280;7073;42.672;23.256;2023-03-14T02:39:44;94467.94;;;1.81;78.89
6128;BME280;7073;42.672;23.256;2023-03-14T02:42:13;94479.63;;;1.83;77.53
6128;BME280;7073;42.672;23.256;2023-03-14T02:44:52;94476.09;;;1.93;77.48
6128;BME280;7073;42.672;23.256;2023-03-14T02:47:22;94475.94;;;1.70;77.87
6128;BME280;7073;42.672;23.256;2023-03-14T02:49:59;94468.22;;;1.62;78.94
6128;BME280;7073;42.672;23.256;2023-03-14T02:52:27;94465.47;;;1.63;80.44
6128;BME280;7073;42.672;23.256;2023-03-14T02:55:19;94465.66;;;1.78;80.68
6128;BME280;7073;42.672;23.256;2023-03-14T02:57:47;94465.69;;;2.02;78.97
6128;BME280;7073;42.672;23.256;2023-03-14T03:00:15;94470.50;;;1.89;78.06
6128;BME280;7073;42.672;23.256;2023-03-14T03:02:44;94473.22;;;2.04;76.99
6128;BME280;7073;42.672;23.256;2023-03-14T03:05:11;94470.47;;;2.21;76.64
6128;BME280;7073;42.672;23.256;2023-03-14T03:07:38;94463.06;;;2.42;76.12
6128;BME280;7073;42.672;23.256;2023-03-14T03:10:33;94468.06;;;2.52;75.60
6128;BME280;7073;42.672;23.256;2023-03-14T03:13:22;94469.19;;;2.58;73.40
6128;BME280;7073;42.672;23.256;2023-03-14T03:16:14;94469.69;;;2.37;74.20
6128;BME280;7073;42.672;23.256;2023-03-14T03:18:41;94469.38;;;2.24;74.87
6128;BME280;7073;42.672;23.256;2023-03-14T03:21:08;94469.34;;;2.40;74.92
6128;BME280;7073;42.672;23.256;2023-03-14T03:23:35;94430.50;;;2.27;73.38
6128;BME280;7073;42.672;23.256;2023-03-14T03:26:04;94450.41;;;2.25;74.24
6128;BME280;7073;42.672;23.256;2023-03-14T03:28:35;94469.34;;;2.40;73.49
6128;BME280;7073;42.672;23.256;2023-03-14T03:34:37;94462.31;;;2.26;74.27
6128;BME280;7073;42.672;23.256;2023-03-14T03:37:04;94447.84;;;2.25;74.77
6128;BME280;7073;42.672;23.256;2023-03-14T03:39:50;94460.66;;;2.49;74.00
6128;BME280;7073;42.672;23.256;2023-03-14T03:42:19;94463.25;;;2.25;75.55
6128;BME280;7073;42.672;23.256;2023-03-14T03:44:48;94467.13;;;1.89;77.42
6128;BME280;7073;42.672;23.256;2023-03-14T03:47:20;94474.81;;;1.89;78.79
6128;BME280;7073;42.672;23.256;2023-03-14T03:49:46;94479.13;;;1.72;80.52
6128;BME280;7073;42.672;23.256;2023-03-14T03:52:13;94473.69;;;1.83;79.01
6128;BME280;7073;42.672;23.256;2023-03-14T03:55:18;94475.47;;;2.15;79.87
6128;BME280;7073;42.672;23.256;2023-03-14T03:57:44;94477.25;;;2.22;77.79
6128;BME280;7073;42.672;23.256;2023-03-14T04:00:44;94476.59;;;2.04;78.13
6128;BME280;7073;42.672;23.256;2023-03-14T04:03:24;94470.16;;;2.32;78.16
6128;BME280;7073;42.672;23.256;2023-03-14T04:06:10;94472.41;;;2.35;76.53
6128;BME280;7073;42.672;23.256;2023-03-14T04:08:37;94466.31;;;2.28;77.98
6128;BME280;7073;42.672;23.256;2023-03-14T04:11:05;94478.03;;;2.39;78.09
6128;BME280;7073;42.672;23.256;2023-03-14T04:13:32;94476.59;;;2.36;76.93
6128;BME280;7073;42.672;23.256;2023-03-14T04:16:09;94472.28;;;2.29;77.12
6128;BME280;7073;42.672;23.256;2023-03-14T04:18:40;94464.88;;;2.02;78.47
6128;BME280;7073;42.672;23.256;2023-03-14T04:21:07;94462.31;;;1.94;79.09
6128;BME280;7073;42.672;23.256;2023-03-14T04:23:34;94458.56;;;1.56;80.30
6128;BME280;7073;42.672;23.256;2023-03-14T04:26:02;94449.72;;;1.50;80.27
6128;BME280;7073;42.672;23.256;2023-03-14T04:28:29;94455.53;;;1.52;81.89
6128;BME280;7073;42.672;23.256;2023-03-14T04:30:56;94419.09;;;1.49;81.66
6128;BME280;7073;42.672;23.256;2023-03-14T04:33:24;94451.97;;;1.45;83.09
6128;BME280;7073;42.672;23.256;2023-03-14T04:35:53;94437.91;;;1.65;82.99
6128;BME280;7073;42.672;23.256;2023-03-14T04:38:26;94439.19;;;1.85;82.73
6128;BME280;7073;42.672;23.256;2023-03-14T04:40:53;94437.25;;;1.88;80.56
6128;BME280;7073;42.672;23.256;2023-03-14T04:43:20;94431.97;;;1.81;81.42
6128;BME280;7073;42.672;23.256;2023-03-14T04:45:47;94420.72;;;1.50;82.15
6128;BME280;7073;42.672;23.256;2023-03-14T04:51:39;94426.97;;;1.39;82.57
6128;BME280;7073;42.672;23.256;2023-03-14T04:54:07;94402.75;;;1.34;83.90
6128;BME280;7073;42.672;23.256;2023-03-14T04:56:36;94422.16;;;1.84;82.98
6128;BME280;7073;42.672;23.256;2023-03-14T04:59:03;94412.22;;;2.06;83.69
6128;BME280;7073;42.672;23.256;2023-03-14T05:01:30;94424.59;;;2.10;80.79
6128;BME280;7073;42.672;23.256;2023-03-14T05:04:00;94415.75;;;2.21;80.30
6128;BME280;7073;42.672;23.256;2023-03-14T05:10:22;94422.47;;;2.06;79.17
6128;BME280;7073;42.672;23.256;2023-03-14T05:12:50;94427.00;;;1.88;80.69
6128;BME280;7073;42.672;23.256;2023-03-14T05:15:30;94427.66;;;1.81;80.71
6128;BME280;7073;42.672;23.256;2023-03-14T05:17:57;94423.63;;;1.87;82.78
6128;BME280;7073;42.672;23.256;2023-03-14T05:20:24;94421.66;;;2.29;81.21
6128;BME280;7073;42.672;23.256;2023-03-14T05:22:50;94424.69;;;2.49;80.15
6128;BME280;7073;42.672;23.256;2023-03-14T05:25:24;94425.00;;;2.54;79.29
6128;BME280;7073;42.672;23.256;2023-03-14T05:27:53;94410.94;;;2.81;78.84
6128;BME280;7073;42.672;23.256;2023-03-14T05:30:21;94415.47;;;3.09;76.99
6128;BME280;7073;42.672;23.256;2023-03-14T05:32:47;94414.53;;;3.33;76.41
6128;BME280;7073;42.672;23.256;2023-03-14T05:35:16;94417.53;;;3.45;74.17
6128;BME280;7073;42.672;23.256;2023-03-14T05:38:11;94425.25;;;3.45;72.96
6128;BME280;7073;42.672;23.256;2023-03-14T05:41:07;94418.25;;;3.53;70.43
6128;BME280;7073;42.672;23.256;2023-03-14T05:43:34;94418.78;;;3.71;69.92
6128;BME280;7073;42.672;23.256;2023-03-14T05:46:01;94417.81;;;3.95;68.08
6128;BME280;7073;42.672;23.256;2023-03-14T05:48:28;94418.19;;;3.92;69.84
6128;BME280;7073;42.672;23.256;2023-03-14T05:50:56;94416.44;;;4.22;68.97
6128;BME280;7073;42.672;23.256;2023-03-14T05:53:24;94419.94;;;4.29;69.79
6128;BME280;7073;42.672;23.256;2023-03-14T05:55:55;94418.22;;;4.21;69.66
6128;BME280;7073;42.672;23.256;2023-03-14T05:58:26;94424.22;;;3.99;67.28
6128;BME280;7073;42.672;23.256;2023-03-14T06:00:55;94423.88;;;3.80;68.86
6128;BME280;7073;42.672;23.256;2023-03-14T06:03:29;94416.44;;;3.39;68.79
6128;BME280;7073;42.672;23.256;2023-03-14T06:06:26;94415.88;;;3.97;68.22
6128;BME280;7073;42.672;23.256;2023-03-14T06:08:54;94415.06;;;4.49;67.46
6128;BME280;7073;42.672;23.256;2023-03-14T06:11:21;94420.06;;;4.65;64.91
6128;BME280;7073;42.672;23.256;2023-03-14T06:13:50;94423.63;;;4.49;66.20
6128;BME280;7073;42.672;23.256;2023-03-14T06:16:17;94422.13;;;4.84;64.53
6128;BME280;7073;42.672;23.256;2023-03-14T06:18:44;94414.91;;;4.65;63.95
6128;BME280;7073;42.672;23.256;2023-03-14T06:21:14;94417.22;;;4.60;64.61
6128;BME280;7073;42.672;23.256;2023-03-14T06:23:41;94414.66;;;4.60;64.87
6128;BME280;7073;42.672;23.256;2023-03-14T06:26:08;94427.19;;;4.77;63.77
6128;BME280;7073;42.672;23.256;2023-03-14T06:28:35;94435.00;;;5.13;63.46
6128;BME280;7073;42.672;23.256;2023-03-14T06:31:05;94433.34;;;4.76;63.92
6128;BME280;7073;42.672;23.256;2023-03-14T06:33:33;94433.13;;;5.22;62.68
6128;BME280;7073;42.672;23.256;2023-03-14T06:36:00;94428.53;;;5.03;62.06
6128;BME280;7073;42.672;23.256;2023-03-14T06:38:27;94430.03;;;4.97;61.28
6128;BME280;7073;42.672;23.256;2023-03-14T06:40:54;94417.00;;;5.20;62.04
6128;BME280;7073;42.672;23.256;2023-03-14T06:43:20;94429.13;;;5.91;60.16
6128;BME280;7073;42.672;23.256;2023-03-14T06:45:47;94421.03;;;5.58;60.13
6128;BME280;7073;42.672;23.256;2023-03-14T06:48:15;94416.03;;;5.92;59.61
6128;BME280;7073;42.672;23.256;2023-03-14T06:50:44;94412.41;;;6.08;57.59
6128;BME280;7073;42.672;23.256;2023-03-14T06:53:11;94408.66;;;6.17;57.17
6128;BME280;7073;42.672;23.256;2023-03-14T06:55:38;94403.88;;;6.14;56.07
6128;BME280;7073;42.672;23.256;2023-03-14T06:58:04;94406.22;;;6.09;55.19
6128;BME280;7073;42.672;23.256;2023-03-14T07:00:33;94406.38;;;6.29;54.34
6128;BME280;7073;42.672;23.256;2023-03-14T07:03:01;94380.56;;;6.35;55.72
6128;BME280;7073;42.672;23.256;2023-03-14T07:05:29;94395.50;;;6.67;54.64
6128;BME280;7073;42.672;23.256;2023-03-14T07:07:56;94390.91;;;6.35;53.33
6128;BME280;7073;42.672;23.256;2023-03-14T07:10:23;94398.44;;;6.30;56.66
6128;BME280;7073;42.672;23.256;2023-03-14T07:12:49;94377.16;;;6.07;55.57
6128;BME280;7073;42.672;23.256;2023-03-14T07:15:18;94397.78;;;6.49;55.38
6128;BME280;7073;42.672;23.256;2023-03-14T07:17:44;94397.56;;;6.51;54.48
6128;BME280;7073;42.672;23.256;2023-03-14T07:20:13;94396.84;;;6.29;55.29
6128;BME280;7073;42.672;23.256;2023-03-14T07:22:41;94409.13;;;6.83;53.58
6128;BME280;7073;42.672;23.256;2023-03-14T07:25:08;94396.81;;;6.85;54.20
6128;BME280;7073;42.672;23.256;2023-03-14T07:27:37;94391.38;;;6.79;54.23
6128;BME280;7073;42.672;23.256;2023-03-14T07:30:05;94391.94;;;7.09;51.97
6128;BME280;7073;42.672;23.256;2023-03-14T07:32:32;94385.28;;;6.53;53.22
6128;BME280;7073;42.672;23.256;2023-03-14T07:34:59;94385.22;;;6.81;53.30
6128;BME280;7073;42.672;23.256;2023-03-14T07:37:26;94382.22;;;7.24;52.82
6128;BME280;7073;42.672;23.256;2023-03-14T07:39:54;94374.69;;;7.29;52.51
6128;BME280;7073;42.672;23.256;2023-03-14T07:42:21;94376.53;;;7.42;52.57
6128;BME280;7073;42.672;23.256;2023-03-14T07:44:48;94359.41;;;7.54;52.94
6128;BME280;7073;42.672;23.256;2023-03-14T07:47:14;94376.94;;;7.59;52.59
6128;BME280;7073;42.672;23.256;2023-03-14T07:49:41;94369.66;;;7.95;51.03
6128;BME280;7073;42.672;23.256;2023-03-14T07:52:08;94372.81;;;7.90;50.39
6128;BME280;7073;42.672;23.256;2023-03-14T07:54:35;94372.19;;;7.69;50.74
6128;BME280;7073;42.672;23.256;2023-03-14T07:57:03;94367.22;;;7.93;51.32
6128;BME280;7073;42.672;23.256;2023-03-14T07:59:30;94369.06;;;8.32;50.32
6128;BME280;7073;42.672;23.256;2023-03-14T08:01:57;94365.47;;;8.40;49.07
6128;BME280;7073;42.672;23.256;2023-03-14T08:04:24;94354.28;;;8.46;50.34
6128;BME280;7073;42.672;23.256;2023-03-14T08:06:53;94363.47;;;8.55;49.95
6128;BME280;7073;42.672;23.256;2023-03-14T08:09:20;94348.19;;;8.91;48.40
6128;BME280;7073;42.672;23.256;2023-03-14T08:11:47;94363.03;;;9.29;47.50
6128;BME280;7073;42.672;23.256;2023-03-14T08:14:15;94366.63;;;9.28;48.21
6128;BME280;7073;42.672;23.256;2023-03-14T08:16:41;94363.78;;;9.36;47.75
6128;BME280;7073;42.672;23.256;2023-03-14T08:19:08;94359.41;;;9.74;47.57
6128;BME280;7073;42.672;23.256;2023-03-14T08:21:35;94360.97;;;10.06;45.92
6128;BME280;7073;42.672;23.256;2023-03-14T08:24:02;94354.94;;;9.50;46.29
6128;BME280;7073;42.672;23.256;2023-03-14T08:26:28;94352.41;;;9.37;46.50
6128;BME280;7073;42.672;23.256;2023-03-14T08:28:55;94359.81;;;10.02;45.92
6128;BME280;7073;42.672;23.256;2023-03-14T08:31:23;94349.41;;;10.02;45.09
6128;BME280;7073;42.672;23.256;2023-03-14T08:33:51;94350.94;;;10.10;45.80
6128;BME280;7073;42.672;23.256;2023-03-14T08:36:19;94349.97;;;9.79;45.33
6128;BME280;7073;42.672;23.256;2023-03-14T08:38:46;94349.09;;;9.85;45.33
6128;BME280;7073;42.672;23.256;2023-03-14T08:41:12;94343.72;;;9.87;45.72
6128;BME280;7073;42.672;23.256;2023-03-14T08:43:39;94343.28;;;9.90;45.81
6128;BME280;7073;42.672;23.256;2023-03-14T08:46:06;94335.00;;;10.00;45.14
6128;BME280;7073;42.672;23.256;2023-03-14T08:48:34;94332.47;;;10.18;45.36
6128;BME280;7073;42.672;23.256;2023-03-14T08:51:04;94333.78;;;10.52;43.92
6128;BME280;7073;42.672;23.256;2023-03-14T08:53:31;94327.84;;;11.17;44.39
6128;BME280;7073;42.672;23.256;2023-03-14T08:55:59;94322.09;;;10.97;43.43
6128;BME280;7073;42.672;23.256;2023-03-14T08:58:25;94324.41;;;11.05;43.48
6128;BME280;7073;42.672;23.256;2023-03-14T09:00:52;94318.16;;;11.54;42.88
6128;BME280;7073;42.672;23.256;2023-03-14T09:03:19;94306.59;;;11.02;41.32
6128;BME280;7073;42.672;23.256;2023-03-14T09:05:49;94295.63;;;11.12;42.12
6128;BME280;7073;42.672;23.256;2023-03-14T09:08:16;94279.00;;;11.42;42.90
6128;BME280;7073;42.672;23.256;2023-03-14T09:10:43;94283.88;;;11.69;41.60
6128;BME280;7073;42.672;23.256;2023-03-14T09:13:10;94286.75;;;11.90;39.38
6128;BME280;7073;42.672;23.256;2023-03-14T09:15:37;94286.69;;;11.37;40.39
6128;BME280;7073;42.672;23.256;2023-03-14T09:18:04;94280.22;;;11.10;41.65
6128;BME280;7073;42.672;23.256;2023-03-14T09:20:31;94274.59;;;11.96;40.66
6128;BME280;7073;42.672;23.256;2023-03-14T09:22:59;94269.75;;;12.46;38.83
6128;BME280;7073;42.672;23.256;2023-03-14T09:25:25;94262.13;;;12.56;38.17
6128;BME280;7073;42.672;23.256;2023-03-14T09:27:52;94255.66;;;12.58;38.41
6128;BME280;7073;42.672;23.256;2023-03-14T09:30:19;94257.63;;;12.91;38.39
6128;BME280;7073;42.672;23.256;2023-03-14T09:32:46;94253.41;;;13.58;37.48
6128;BME280;7073;42.672;23.256;2023-03-14T09:35:12;94247.59;;;13.00;36.32
6128;BME280;7073;42.672;23.256;2023-03-14T09:37:39;94250.88;;;13.63;36.32
6128;BME280;7073;42.672;23.256;2023-03-14T09:40:12;94242.66;;;13.71;36.59
6128;BME280;7073;42.672;23.256;2023-03-14T09:42:39;94234.94;;;13.81;36.66
6128;BME280;7073;42.672;23.256;2023-03-14T09:45:11;94237.66;;;14.20;35.85
6128;BME280;7073;42.672;23.256;2023-03-14T09:47:39;94234.25;;;14.96;34.81
6128;BME280;7073;42.672;23.256;2023-03-14T09:50:12;94223.03;;;15.49;34.51
6128;BME280;7073;42.672;23.256;2023-03-14T09:52:40;94214.78;;;15.67;32.86
6128;BME280;7073;42.672;23.256;2023-03-14T09:55:13;94211.97;;;15.25;34.05
6128;BME280;7073;42.672;23.256;2023-03-14T09:57:41;94206.16;;;15.71;32.97
6128;BME280;7073;42.672;23.256;2023-03-14T10:00:14;94200.69;;;15.24;34.08
6128;BME280;7073;42.672;23.256;2023-03-14T10:02:53;94195.19;;;15.79;33.54
6128;BME280;7073;42.672;23.256;2023-03-14T10:05:22;94193.81;;;16.04;33.39
6128;BME280;7073;42.672;23.256;2023-03-14T10:07:50;94196.44;;;15.72;32.82
6128;BME280;7073;42.672;23.256;2023-03-14T10:10:20;94192.44;;;15.96;32.82
6128;BME280;7073;42.672;23.256;2023-03-14T10:12:54;94177.69;;;15.95;33.16
6128;BME280;7073;42.672;23.256;2023-03-14T10:15:25;94174.09;;;17.15;30.86
6128;BME280;7073;42.672;23.256;2023-03-14T10:17:52;94166.38;;;16.36;32.25
6128;BME280;7073;42.672;23.256;2023-03-14T10:20:31;94169.31;;;18.73;29.45
6128;BME280;7073;42.672;23.256;2023-03-14T10:23:02;94156.94;;;18.69;28.58
6128;BME280;7073;42.672;23.256;2023-03-14T10:25:33;94154.41;;;17.43;29.52
6128;BME280;7073;42.672;23.256;2023-03-14T10:28:00;94145.41;;;17.08;30.56
6128;BME280;7073;42.672;23.256;2023-03-14T10:30:30;94147.34;;;17.53;29.69
6128;BME280;7073;42.672;23.256;2023-03-14T10:33:08;94132.91;;;18.65;28.98
6128;BME280;7073;42.672;23.256;2023-03-14T10:35:35;94127.91;;;18.69;28.66
6128;BME280;7073;42.672;23.256;2023-03-14T10:38:03;94113.03;;;19.32;28.80
6128;BME280;7073;42.672;23.256;2023-03-14T10:40:33;94107.38;;;19.05;27.47
6128;BME280;7073;42.672;23.256;2023-03-14T10:43:04;94097.13;;;18.98;28.99
6128;BME280;7073;42.672;23.256;2023-03-14T10:45:34;94098.47;;;19.39;28.07
6128;BME280;7073;42.672;23.256;2023-03-14T10:48:21;94098.38;;;18.62;28.24
6128;BME280;7073;42.672;23.256;2023-03-14T10:50:53;94099.22;;;18.47;27.95
6128;BME280;7073;42.672;23.256;2023-03-14T10:53:20;94078.78;;;17.18;30.09
6128;BME280;7073;42.672;23.256;2023-03-14T10:55:49;94081.09;;;18.15;29.51
6128;BME280;7073;42.672;23.256;2023-03-14T10:58:25;94071.72;;;19.07;28.41
6128;BME280;7073;42.672;23.256;2023-03-14T11:01:00;94065.38;;;19.08;29.21
6128;BME280;7073;42.672;23.256;2023-03-14T11:03:31;94059.81;;;19.10;28.47
6128;BME280;7073;42.672;23.256;2023-03-14T11:06:05;94058.88;;;18.96;27.75
6128;BME280;7073;42.672;23.256;2023-03-14T11:08:41;94048.94;;;18.77;27.81
6128;BME280;7073;42.672;23.256;2023-03-14T11:11:18;94040.31;;;19.06;29.22
6128;BME280;7073;42.672;23.256;2023-03-14T11:13:55;94031.13;;;18.49;29.13
6128;BME280;7073;42.672;23.256;2023-03-14T11:16:30;94030.69;;;18.81;29.82
6128;BME280;7073;42.672;23.256;2023-03-14T11:19:12;94016.72;;;18.80;29.61
6128;BME280;7073;42.672;23.256;2023-03-14T11:21:48;94017.81;;;19.99;27.70
6128;BME280;7073;42.672;23.256;2023-03-14T11:24:28;94003.09;;;20.41;27.30
6128;BME280;7073;42.672;23.256;2023-03-14T11:27:05;94008.09;;;20.61;27.47
6128;BME280;7073;42.672;23.256;2023-03-14T11:29:37;93995.41;;;19.92;26.73
6128;BME280;7073;42.672;23.256;2023-03-14T11:32:12;93991.84;;;20.06;27.76
6128;BME280;7073;42.672;23.256;2023-03-14T11:34:43;93987.59;;;17.93;30.80
6128;BME280;7073;42.672;23.256;2023-03-14T11:37:16;93990.72;;;18.00;29.57
6128;BME280;7073;42.672;23.256;2023-03-14T11:39:49;93966.03;;;18.34;29.80
6128;BME280;7073;42.672;23.256;2023-03-14T11:42:20;93969.66;;;19.79;28.67
6128;BME280;7073;42.672;23.256;2023-03-14T11:44:49;93965.38;;;20.06;28.44
6128;BME280;7073;42.672;23.256;2023-03-14T11:47:19;93955.25;;;19.90;29.42
6128;BME280;7073;42.672;23.256;2023-03-14T11:49:50;93953.00;;;19.78;29.58
6128;BME280;7073;42.672;23.256;2023-03-14T11:52:22;93958.50;;;19.58;29.72
6128;BME280;7073;42.672;23.256;2023-03-14T11:54:55;93951.78;;;20.55;28.14
6128;BME280;7073;42.672;23.256;2023-03-14T11:57:26;93954.56;;;20.03;27.71
6128;BME280;7073;42.672;23.256;2023-03-14T11:59:56;93925.88;;;19.44;27.86
6128;BME280;7073;42.672;23.256;2023-03-14T12:02:33;93922.75;;;18.79;29.20
6128;BME280;7073;42.672;23.256;2023-03-14T12:08:22;93909.50;;;18.84;29.46
6128;BME280;7073;42.672;23.256;2023-03-14T12:10:54;93907.78;;;20.22;28.03
6128;BME280;7073;42.672;23.256;2023-03-14T12:13:28;93906.13;;;19.36;28.09
6128;BME280;7073;42.672;23.256;2023-03-14T12:15:57;93904.28;;;19.84;28.63
6128;BME280;7073;42.672;23.256;2023-03-14T12:18:28;93898.78;;;20.42;27.61
6128;BME280;7073;42.672;23.256;2023-03-14T12:20:57;93890.22;;;19.65;27.58
6128;BME280;7073;42.672;23.256;2023-03-14T12:23:26;93886.09;;;20.57;27.00
6128;BME280;7073;42.672;23.256;2023-03-14T12:26:15;93887.28;;;20.51;27.07
6128;BME280;7073;42.672;23.256;2023-03-14T12:28:48;93873.59;;;21.27;26.63
6128;BME280;7073;42.672;23.256;2023-03-14T12:31:44;93874.19;;;21.52;26.54
6128;BME280;7073;42.672;23.256;2023-03-14T12:34:31;93864.16;;;21.76;25.80
6128;BME280;7073;42.672;23.256;2023-03-14T12:37:29;93863.06;;;19.41;27.79
6128;BME280;7073;42.672;23.256;2023-03-14T12:40:20;93863.28;;;20.61;27.55
6128;BME280;7073;42.672;23.256;2023-03-14T12:42:58;93858.38;;;21.47;26.47
6128;BME280;7073;42.672;23.256;2023-03-14T12:45:28;93851.09;;;21.79;26.22
6128;BME280;7073;42.672;23.256;2023-03-14T12:48:10;93847.97;;;21.64;26.06
6128;BME280;7073;42.672;23.256;2023-03-14T12:50:45;93832.38;;;22.25;25.23
6128;BME280;7073;42.672;23.256;2023-03-14T12:53:52;93835.91;;;23.09;24.02
6128;BME280;7073;42.672;23.256;2023-03-14T12:56:44;93830.31;;;22.22;25.29
6128;BME280;7073;42.672;23.256;2023-03-14T12:59:25;93821.00;;;22.69;24.42
6128;BME280;7073;42.672;23.256;2023-03-14T13:01:59;93810.09;;;23.10;24.18
6128;BME280;7073;42.672;23.256;2023-03-14T13:04:29;93814.81;;;22.82;24.57
6128;BME280;7073;42.672;23.256;2023-03-14T13:06:59;93810.75;;;21.55;26.09
6128;BME280;7073;42.672;23.256;2023-03-14T13:09:50;93805.97;;;22.95;23.96
6128;BME280;7073;42.672;23.256;2023-03-14T13:12:19;93789.91;;;23.00;24.04
6128;BME280;7073;42.672;23.256;2023-03-14T13:14:51;93791.72;;;23.22;23.72
6128;BME280;7073;42.672;23.256;2023-03-14T13:17:24;93796.75;;;23.32;22.95
6128;BME280;7073;42.672;23.256;2023-03-14T13:19:55;93779.50;;;23.12;23.42
6128;BME280;7073;42.672;23.256;2023-03-14T13:22:26;93776.84;;;23.12;23.96
6128;BME280;7073;42.672;23.256;2023-03-14T13:25:00;93751.25;;;21.97;24.04
6128;BME280;7073;42.672;23.256;2023-03-14T13:27:30;93759.41;;;22.45;23.46
6128;BME280;7073;42.672;23.256;2023-03-14T13:29:57;93756.25;;;20.67;25.27
6128;BME280;7073;42.672;23.256;2023-03-14T13:32:28;93738.63;;;20.44;26.76
6128;BME280;7073;42.672;23.256;2023-03-14T13:34:56;93736.97;;;21.71;25.86
6128;BME280;7073;42.672;23.256;2023-03-14T13:37:25;93741.78;;;20.60;25.49
6128;BME280;7073;42.672;23.256;2023-03-14T13:39:53;93730.53;;;22.21;25.09
6128;BME280;7073;42.672;23.256;2023-03-14T13:42:21;93727.50;;;21.92;24.85
6128;BME280;7073;42.672;23.256;2023-03-14T13:44:53;93716.84;;;22.59;24.71
6128;BME280;7073;42.672;23.256;2023-03-14T13:47:23;93713.44;;;22.89;24.27
6128;BME280;7073;42.672;23.256;2023-03-14T13:49:51;93711.28;;;23.82;23.48
6128;BME280;7073;42.672;23.256;2023-03-14T13:52:24;93704.66;;;23.36;23.24
6128;BME280;7073;42.672;23.256;2023-03-14T13:54:54;93696.72;;;22.97;23.73
6128;BME280;7073;42.672;23.256;2023-03-14T13:57:21;93694.94;;;22.00;23.50
6128;BME280;7073;42.672;23.256;2023-03-14T13:59:59;93679.34;;;21.13;24.97
6128;BME280;7073;42.672;23.256;2023-03-14T14:02:31;93680.31;;;21.67;25.51
6128;BME280;7073;42.672;23.256;2023-03-14T14:05:00;93671.34;;;22.21;24.55
6128;BME280;7073;42.672;23.256;2023-03-14T14:07:28;93669.13;;;22.45;24.51
6128;BME280;7073;42.672;23.256;2023-03-14T14:10:10;93666.84;;;22.83;24.24
6128;BME280;7073;42.672;23.256;2023-03-14T14:12:41;93671.09;;;23.01;23.62
6128;BME280;7073;42.672;23.256;2023-03-14T14:15:13;93650.34;;;22.64;23.67